createdAt,value
2023-05-12T00:01:24.911Z,8.07
2023-05-12T00:03:54.394Z,6.70
2023-05-12T00:06:21.564Z,7.03
2023-05-12T00:08:48.596Z,13.23
2023-05-12T00:11:15.676Z,6.97
2023-05-12T00:13:42.708Z,6.60
2023-05-12T00:16:10.029Z,8.52
2023-05-12T00:18:37.040Z,7.70
2023-05-12T00:21:04.035Z,8.93
2023-05-12T00:23:33.361Z,10.63
2023-05-12T00:26:00.310Z,7.93
2023-05-12T00:28:29.657Z,8.13
2023-05-12T00:31:02.887Z,10.52
2023-05-12T00:33:31.264Z,9.82
2023-05-12T00:36:01.265Z,9.75
2023-05-12T00:38:28.134Z,9.20
2023-05-12T00:40:55.069Z,8.40
2023-05-12T00:43:21.946Z,9.63
2023-05-12T00:45:48.998Z,9.98
2023-05-12T00:48:15.728Z,12.63
2023-05-12T00:50:45.070Z,10.13
2023-05-12T00:53:13.334Z,9.60
2023-05-12T00:55:40.082Z,8.73
2023-05-12T00:58:07.351Z,9.48
2023-05-12T01:00:34.131Z,9.23
2023-05-12T01:03:01.009Z,8.73
2023-05-12T01:05:32.071Z,9.45
2023-05-12T01:08:01.272Z,9.77
2023-05-12T01:10:28.287Z,9.88
2023-05-12T01:12:57.144Z,9.35
2023-05-12T01:15:24.009Z,9.45
2023-05-12T01:17:57.635Z,10.73
2023-05-12T01:20:27.099Z,8.80
2023-05-12T01:22:55.273Z,9.65
2023-05-12T01:25:27.064Z,8.85
2023-05-12T01:27:54.509Z,9.43
2023-05-12T01:30:21.983Z,8.98
2023-05-12T01:32:52.259Z,8.85
2023-05-12T01:35:19.151Z,9.85
2023-05-12T01:37:48.317Z,8.43
2023-05-12T01:40:15.379Z,7.25
2023-05-12T01:42:43.055Z,9.27
2023-05-12T01:45:10.588Z,7.45
2023-05-12T01:47:37.491Z,6.80
2023-05-12T01:50:04.552Z,7.38
2023-05-12T01:52:33.523Z,7.93
2023-05-12T01:55:02.428Z,10.13
2023-05-12T01:57:29.297Z,7.75
2023-05-12T01:59:56.274Z,8.77
2023-05-12T02:02:23.013Z,7.63
2023-05-12T02:04:52.208Z,7.93
2023-05-12T02:07:18.938Z,9.00
2023-05-12T02:09:45.934Z,7.43
2023-05-12T02:12:15.569Z,6.43
2023-05-12T02:14:42.401Z,6.15
2023-05-12T02:17:09.455Z,7.32
2023-05-12T02:19:36.188Z,8.73
2023-05-12T02:22:03.017Z,6.32
2023-05-12T02:24:29.853Z,6.28
2023-05-12T02:26:56.740Z,6.65
2023-05-12T02:29:23.439Z,6.38
2023-05-12T02:31:52.605Z,6.05
2023-05-12T02:34:19.449Z,6.65
2023-05-12T02:36:46.303Z,5.90
2023-05-12T02:39:13.589Z,5.22
2023-05-12T02:41:40.336Z,5.40
2023-05-12T02:44:07.110Z,5.20
2023-05-12T02:46:33.851Z,5.85
2023-05-12T02:49:00.735Z,5.82
2023-05-12T02:51:32.336Z,6.85
2023-05-12T02:53:59.080Z,6.15
2023-05-12T02:56:26.343Z,4.13
2023-05-12T02:58:55.536Z,4.90
2023-05-12T03:01:24.549Z,4.15
2023-05-12T03:03:51.415Z,4.50
2023-05-12T03:06:18.300Z,4.72
2023-05-12T03:08:45.048Z,4.05
2023-05-12T03:11:12.091Z,4.50
2023-05-12T03:13:38.805Z,4.53
2023-05-12T03:16:05.940Z,4.75
2023-05-12T03:18:32.658Z,4.93
2023-05-12T03:20:59.512Z,10.85
2023-05-12T03:23:26.811Z,4.75
2023-05-12T03:25:55.862Z,5.97
2023-05-12T03:28:24.915Z,5.53
2023-05-12T03:30:51.697Z,6.03
2023-05-12T03:33:20.899Z,6.00
2023-05-12T03:35:47.899Z,5.90
2023-05-12T03:38:14.588Z,6.50
2023-05-12T03:40:41.378Z,6.80
2023-05-12T03:43:08.132Z,7.97
2023-05-12T03:45:35.021Z,7.97
2023-05-12T03:48:01.743Z,7.65
2023-05-12T03:50:28.381Z,6.45
2023-05-12T03:52:56.229Z,11.30
2023-05-12T03:55:23.010Z,8.68
2023-05-12T03:57:50.235Z,8.48
2023-05-12T04:00:17.737Z,8.20
2023-05-12T04:02:47.562Z,9.75
2023-05-12T04:05:14.771Z,11.00
2023-05-12T04:07:41.477Z,11.68
2023-05-12T04:10:08.883Z,12.05
2023-05-12T04:12:35.511Z,12.90
2023-05-12T04:15:02.902Z,13.13
2023-05-12T04:17:32.097Z,13.82
2023-05-12T04:19:58.897Z,15.82
2023-05-12T04:22:27.765Z,13.77
2023-05-12T04:24:54.391Z,15.15
2023-05-12T04:27:21.271Z,18.40
2023-05-12T04:29:48.152Z,16.77
2023-05-12T04:32:14.970Z,17.38
2023-05-12T04:34:42.068Z,19.67
2023-05-12T04:37:09.090Z,18.80
2023-05-12T04:39:35.866Z,21.63
2023-05-12T04:42:02.791Z,24.85
2023-05-12T04:44:32.703Z,21.10
2023-05-12T04:47:02.434Z,17.00
2023-05-12T04:49:31.949Z,14.68
2023-05-12T04:51:58.676Z,13.98
2023-05-12T04:54:27.911Z,16.17
2023-05-12T04:56:56.871Z,21.65
2023-05-12T04:59:24.065Z,23.40
2023-05-12T05:01:51.382Z,24.08
2023-05-12T05:04:21.021Z,22.70
2023-05-12T05:06:48.125Z,23.45
2023-05-12T05:09:14.947Z,21.33
2023-05-12T05:11:42.071Z,21.45
2023-05-12T05:14:08.752Z,24.52
2023-05-12T05:16:35.749Z,27.17
2023-05-12T05:19:06.466Z,19.10
2023-05-12T05:21:36.109Z,31.35
2023-05-12T05:24:02.851Z,28.98
2023-05-12T05:26:31.619Z,24.30
2023-05-12T05:28:58.517Z,25.48
2023-05-12T05:31:26.013Z,30.10
2023-05-12T05:33:52.844Z,29.33
2023-05-12T05:36:28.883Z,22.00
2023-05-12T05:38:57.263Z,29.83
2023-05-12T05:41:26.208Z,30.38
2023-05-12T05:43:52.865Z,27.05
2023-05-12T05:46:19.668Z,32.13
2023-05-12T05:48:46.660Z,30.50
2023-05-12T05:51:13.303Z,31.17
2023-05-12T05:53:40.073Z,34.83
2023-05-12T05:56:07.010Z,31.75
2023-05-12T05:58:34.107Z,28.42
2023-05-12T06:01:03.659Z,33.38
2023-05-12T06:03:30.569Z,31.02
2023-05-12T06:05:59.692Z,31.50
2023-05-12T06:08:26.410Z,35.42
2023-05-12T06:10:53.182Z,34.67
2023-05-12T06:13:21.157Z,31.00
2023-05-12T06:15:47.908Z,37.65
2023-05-12T06:18:14.534Z,38.40
2023-05-12T06:20:41.275Z,35.85
2023-05-12T06:23:08.311Z,36.55
2023-05-12T06:25:35.396Z,35.45
2023-05-12T06:28:02.219Z,33.38
2023-05-12T06:30:31.573Z,37.47
2023-05-12T06:32:58.397Z,31.90
2023-05-12T06:35:27.770Z,28.38
2023-05-12T06:37:54.716Z,26.70
2023-05-12T06:40:27.107Z,26.98
2023-05-12T06:42:54.180Z,23.90
2023-05-12T06:45:21.472Z,24.55
2023-05-12T06:47:48.863Z,26.05
2023-05-12T06:50:17.669Z,22.25
2023-05-12T06:52:44.929Z,22.65
2023-05-12T06:55:11.631Z,22.67
2023-05-12T06:57:38.518Z,24.50
2023-05-12T07:00:05.976Z,21.88
2023-05-12T07:02:33.035Z,22.00
2023-05-12T07:04:59.696Z,25.00
2023-05-12T07:07:28.843Z,26.25
2023-05-12T07:09:58.257Z,22.30
2023-05-12T07:12:25.447Z,22.23
2023-05-12T07:14:55.096Z,20.08
2023-05-12T07:20:05.161Z,23.23
2023-05-12T07:22:32.695Z,19.90
2023-05-12T07:25:00.244Z,21.45
2023-05-12T07:27:29.066Z,18.98
2023-05-12T07:29:55.781Z,16.27
2023-05-12T07:32:23.561Z,15.30
2023-05-12T07:34:53.469Z,17.00
2023-05-12T07:37:20.177Z,13.90
2023-05-12T07:39:47.190Z,14.18
2023-05-12T07:42:16.012Z,12.10
2023-05-12T07:44:42.829Z,13.07
2023-05-12T07:47:11.626Z,12.05
2023-05-12T07:49:38.287Z,9.43
2023-05-12T07:52:05.607Z,11.43
2023-05-12T07:54:32.321Z,9.77
2023-05-12T07:56:59.177Z,12.15
2023-05-12T07:59:26.070Z,7.80
2023-05-12T08:01:54.196Z,7.15
2023-05-12T08:04:20.925Z,10.40
2023-05-12T08:06:50.555Z,6.93
2023-05-12T08:09:20.464Z,9.18
2023-05-12T08:11:51.566Z,6.05
2023-05-12T08:14:18.761Z,7.15
2023-05-12T08:16:46.553Z,5.32
2023-05-12T08:19:14.019Z,6.40
2023-05-12T08:21:40.736Z,6.28
2023-05-12T08:24:09.588Z,4.60
2023-05-12T08:26:36.146Z,5.93
2023-05-12T08:29:02.766Z,6.30
2023-05-12T08:31:29.599Z,5.93
2023-05-12T08:34:09.024Z,5.80
2023-05-12T08:36:39.119Z,7.13
2023-05-12T08:39:08.764Z,5.82
2023-05-12T08:41:52.122Z,5.40
2023-05-12T08:44:19.982Z,5.10
2023-05-12T08:46:48.060Z,4.18
2023-05-12T08:49:18.040Z,7.47
2023-05-12T08:51:54.487Z,7.65
2023-05-12T08:54:26.774Z,3.55
2023-05-12T08:59:26.812Z,4.88
2023-05-12T09:01:57.674Z,5.95
2023-05-12T09:04:24.499Z,4.82
2023-05-12T09:06:53.631Z,6.13
2023-05-12T09:09:21.975Z,5.25
2023-05-12T09:11:53.532Z,4.72
2023-05-12T09:14:25.702Z,3.45
2023-05-12T09:17:00.028Z,6.47
2023-05-12T09:19:26.898Z,5.45
2023-05-12T09:21:53.690Z,3.13
2023-05-12T09:24:21.097Z,5.07
2023-05-12T09:26:56.211Z,4.60
2023-05-12T09:29:31.197Z,6.35
2023-05-12T09:32:01.855Z,3.15
2023-05-12T09:34:30.714Z,4.18
2023-05-12T09:36:58.923Z,5.53
2023-05-12T09:39:29.091Z,4.22
2023-05-12T09:41:55.827Z,3.10
2023-05-12T09:44:24.090Z,7.75
2023-05-12T09:46:51.528Z,4.65
2023-05-12T09:49:27.462Z,4.18
2023-05-12T09:51:58.726Z,6.40
2023-05-12T09:54:30.313Z,3.78
2023-05-12T09:57:03.966Z,4.97
2023-05-12T09:59:32.889Z,4.22
2023-05-12T10:02:05.528Z,4.47
2023-05-12T10:04:45.527Z,4.20
2023-05-12T10:07:14.454Z,3.88
2023-05-12T10:09:42.925Z,4.03
2023-05-12T10:12:13.557Z,3.65
2023-05-12T10:14:41.276Z,3.45
2023-05-12T10:17:09.779Z,2.97
2023-05-12T10:19:41.125Z,4.00
2023-05-12T10:22:13.167Z,3.08
2023-05-12T10:24:41.746Z,5.00
2023-05-12T10:27:08.428Z,4.25
2023-05-12T10:29:37.156Z,10.13
2023-05-12T10:32:04.167Z,6.45
2023-05-12T10:34:33.744Z,2.40
2023-05-12T10:37:00.630Z,3.40
2023-05-12T10:39:32.934Z,2.75
2023-05-12T10:42:06.657Z,2.70
2023-05-12T10:44:33.391Z,4.47
2023-05-12T10:47:00.166Z,5.40
2023-05-12T10:49:40.424Z,5.30
2023-05-12T10:52:08.084Z,2.90
2023-05-12T10:54:41.430Z,3.55
2023-05-12T10:57:15.890Z,2.40
2023-05-12T10:59:49.871Z,3.35
2023-05-12T11:02:19.728Z,5.78
2023-05-12T11:04:53.647Z,4.00
2023-05-12T11:07:31.327Z,3.85
2023-05-12T11:10:04.743Z,3.30
2023-05-12T11:12:37.359Z,2.58
2023-05-12T11:15:05.854Z,6.57
2023-05-12T11:17:38.959Z,5.75
2023-05-12T11:20:12.046Z,3.13
2023-05-12T11:22:41.483Z,5.68
2023-05-12T11:25:12.438Z,3.72
2023-05-12T11:27:42.436Z,8.38
2023-05-12T11:30:11.024Z,6.20
2023-05-12T11:32:43.338Z,4.25
2023-05-12T11:35:11.493Z,3.88
2023-05-12T11:37:41.889Z,3.60
2023-05-12T11:40:15.916Z,3.25
2023-05-12T11:42:46.323Z,6.68
2023-05-12T11:45:23.115Z,7.30
2023-05-12T11:47:50.143Z,3.80
2023-05-12T11:50:26.307Z,3.40
2023-05-12T11:52:55.821Z,4.97
2023-05-12T11:55:26.789Z,4.07
2023-05-12T11:58:01.355Z,3.78
2023-05-12T12:00:30.171Z,6.80
2023-05-12T12:03:13.004Z,4.30
2023-05-12T12:05:41.977Z,4.60
2023-05-12T12:08:17.464Z,3.97
2023-05-12T12:10:47.289Z,5.28
2023-05-12T12:13:25.795Z,3.72
2023-05-12T12:15:52.962Z,3.55
2023-05-12T12:18:19.828Z,5.68
2023-05-12T12:20:52.299Z,5.65
2023-05-12T12:23:18.908Z,7.70
2023-05-12T12:25:45.519Z,3.13
2023-05-12T12:28:13.123Z,6.80
2023-05-12T12:30:39.764Z,6.90
2023-05-12T12:33:08.655Z,4.13
2023-05-12T12:35:37.559Z,3.42
2023-05-12T12:38:04.687Z,5.07
2023-05-12T12:40:31.291Z,2.53
2023-05-12T12:42:57.849Z,4.43
2023-05-12T12:45:24.910Z,3.60
2023-05-12T12:47:54.770Z,5.43
2023-05-12T12:50:25.135Z,3.78
2023-05-12T12:52:53.843Z,5.63
2023-05-12T12:55:23.257Z,4.65
2023-05-12T12:57:50.031Z,5.78
2023-05-12T13:00:19.508Z,7.07
2023-05-12T13:02:49.692Z,3.38
2023-05-12T13:05:16.692Z,4.22
2023-05-12T13:07:45.658Z,4.75
2023-05-12T13:10:14.618Z,6.28
2023-05-12T13:12:41.381Z,7.03
2023-05-12T13:15:08.605Z,4.43
2023-05-12T13:17:35.308Z,3.38
2023-05-12T13:20:04.811Z,4.63
2023-05-12T13:22:31.782Z,3.33
2023-05-12T13:24:58.424Z,3.65
2023-05-12T13:27:25.385Z,4.35
2023-05-12T13:29:52.259Z,4.90
2023-05-12T13:32:22.376Z,5.90
2023-05-12T13:34:51.735Z,6.32
2023-05-12T13:37:20.931Z,5.47
2023-05-12T13:39:49.765Z,4.45
2023-05-12T13:42:17.163Z,3.25
2023-05-12T13:44:46.129Z,3.90
2023-05-12T13:47:12.948Z,3.80
2023-05-12T13:49:39.552Z,3.35
2023-05-12T13:52:09.121Z,3.85
2023-05-12T13:54:35.755Z,3.45
2023-05-12T13:57:06.172Z,3.88
2023-05-12T13:59:32.855Z,3.30
2023-05-12T14:01:59.668Z,3.42
2023-05-12T14:04:26.664Z,3.75
2023-05-12T14:06:55.708Z,3.65
2023-05-12T14:09:22.752Z,4.43
2023-05-12T14:11:49.358Z,5.20
2023-05-12T14:14:16.021Z,3.45
2023-05-12T14:16:42.658Z,4.43
2023-05-12T14:19:12.137Z,2.67
2023-05-12T14:21:41.075Z,4.45
2023-05-12T14:24:08.849Z,6.22
2023-05-12T14:26:40.183Z,4.93
2023-05-12T14:29:08.773Z,3.90
2023-05-12T14:31:35.653Z,4.35
2023-05-12T14:34:09.239Z,3.72
2023-05-12T14:36:35.980Z,4.95
2023-05-12T14:39:02.588Z,2.67
2023-05-12T14:41:32.269Z,3.92
2023-05-12T14:43:58.906Z,4.40
2023-05-12T14:46:25.897Z,3.80
2023-05-12T14:48:52.829Z,2.78
2023-05-12T14:51:19.462Z,4.65
2023-05-12T14:53:46.271Z,3.10
2023-05-12T14:56:15.591Z,3.30
2023-05-12T14:58:42.171Z,8.60
2023-05-12T15:01:09.704Z,3.63
2023-05-12T15:03:36.426Z,3.83
2023-05-12T15:06:07.134Z,3.35
2023-05-12T15:08:36.857Z,4.53
2023-05-12T15:11:05.807Z,4.70
2023-05-12T15:13:34.764Z,3.35
2023-05-12T15:16:04.757Z,4.07
2023-05-12T15:18:31.459Z,7.93
2023-05-12T15:20:58.066Z,5.88
2023-05-12T15:23:24.676Z,4.18
2023-05-12T15:25:51.435Z,3.67
2023-05-12T15:28:18.826Z,3.25
2023-05-12T15:30:53.792Z,5.25
2023-05-12T15:33:21.217Z,11.30
2023-05-12T15:35:47.818Z,5.97
2023-05-12T15:38:14.543Z,3.45
2023-05-12T15:40:41.375Z,5.22
2023-05-12T15:43:10.437Z,5.57
2023-05-12T15:45:37.429Z,4.18
2023-05-12T15:48:09.347Z,3.85
2023-05-12T15:50:38.701Z,4.03
2023-05-12T15:53:07.761Z,4.43
2023-05-12T15:55:34.461Z,7.63
2023-05-12T15:58:01.534Z,4.93
2023-05-12T16:00:28.310Z,4.45
2023-05-12T16:02:55.128Z,4.75
2023-05-12T16:05:24.117Z,4.65
2023-05-12T16:07:55.213Z,3.92
2023-05-12T16:10:22.254Z,3.90
2023-05-12T16:12:51.341Z,3.75
2023-05-12T16:15:18.792Z,6.75
2023-05-12T16:17:45.849Z,7.32
2023-05-12T16:20:12.923Z,6.35
2023-05-12T16:22:40.569Z,5.47
2023-05-12T16:25:10.287Z,7.05
2023-05-12T16:27:37.212Z,7.32
2023-05-12T16:30:04.187Z,8.43
2023-05-12T16:32:32.133Z,6.25
2023-05-12T16:34:58.994Z,6.97
2023-05-12T16:37:26.529Z,5.28
2023-05-12T16:39:53.356Z,7.20
2023-05-12T16:42:20.906Z,6.13
2023-05-12T16:44:48.048Z,4.78
2023-05-12T16:47:14.866Z,5.13
2023-05-12T16:49:41.486Z,5.05
2023-05-12T16:52:12.331Z,5.30
2023-05-12T16:54:39.148Z,4.68
2023-05-12T16:57:06.077Z,6.38
2023-05-12T16:59:33.059Z,6.45
2023-05-12T17:02:00.258Z,5.22
2023-05-12T17:04:27.272Z,4.30
2023-05-12T17:06:53.913Z,6.32
2023-05-12T17:09:21.120Z,5.60
2023-05-12T17:11:47.819Z,5.10
2023-05-12T17:14:16.250Z,6.80
2023-05-12T17:16:49.421Z,7.60
2023-05-12T17:19:16.129Z,5.97
2023-05-12T17:21:42.878Z,5.93
2023-05-12T17:24:11.948Z,5.07
2023-05-12T17:26:38.669Z,6.68
2023-05-12T17:29:05.817Z,5.53
2023-05-12T17:31:32.457Z,4.80
2023-05-12T17:33:59.167Z,9.05
2023-05-12T17:36:26.112Z,7.97
2023-05-12T17:38:52.826Z,9.40
2023-05-12T17:41:19.442Z,6.10
2023-05-12T17:43:47.035Z,9.13
2023-05-12T17:46:17.307Z,6.80
2023-05-12T17:48:43.929Z,6.53
2023-05-12T17:51:13.661Z,10.05
2023-05-12T17:53:40.315Z,9.60
2023-05-12T17:56:07.361Z,7.80
2023-05-12T17:58:34.454Z,8.55
2023-05-12T18:01:03.583Z,9.90
2023-05-12T18:03:30.421Z,9.00
2023-05-12T18:05:57.041Z,8.25
2023-05-12T18:08:23.646Z,7.20
2023-05-12T18:10:52.936Z,6.80
2023-05-12T18:13:19.845Z,8.25
2023-05-12T18:15:48.601Z,10.25
2023-05-12T18:18:15.225Z,5.35
2023-05-12T18:20:42.374Z,7.15
2023-05-12T18:23:09.168Z,5.82
2023-05-12T18:25:36.736Z,5.95
2023-05-12T18:28:03.767Z,6.40
2023-05-12T18:30:30.750Z,7.57
2023-05-12T18:32:57.376Z,5.43
2023-05-12T18:35:27.256Z,8.10
2023-05-12T18:37:53.905Z,10.38
2023-05-12T18:40:22.511Z,8.70
2023-05-12T18:42:53.929Z,11.85
2023-05-12T18:45:21.124Z,10.32
2023-05-12T18:47:48.170Z,8.95
2023-05-12T18:50:15.020Z,6.35
2023-05-12T18:52:43.203Z,6.50
2023-05-12T18:55:11.169Z,6.20
2023-05-12T18:57:37.889Z,5.65
2023-05-12T19:00:04.971Z,5.90
2023-05-12T19:02:34.843Z,4.72
2023-05-12T19:05:04.000Z,6.07
2023-05-12T19:07:30.650Z,7.85
2023-05-12T19:09:57.214Z,7.93
2023-05-12T19:12:23.900Z,11.55
2023-05-12T19:14:50.473Z,9.35
2023-05-12T19:17:17.870Z,6.97
2023-05-12T19:19:44.617Z,9.00
2023-05-12T19:22:11.211Z,7.80
2023-05-12T19:24:38.063Z,10.32
2023-05-12T19:27:04.907Z,8.73
2023-05-12T19:29:33.736Z,7.75
2023-05-12T19:32:00.416Z,9.00
2023-05-12T19:34:29.525Z,6.68
2023-05-12T19:36:58.340Z,8.05
2023-05-12T19:39:25.005Z,13.30
2023-05-12T19:41:51.842Z,10.98
2023-05-12T19:44:18.429Z,12.32
2023-05-12T19:46:47.136Z,9.00
2023-05-12T19:49:14.767Z,9.63
2023-05-12T19:51:43.800Z,8.68
2023-05-12T19:54:10.435Z,11.40
2023-05-12T19:56:37.559Z,8.95
2023-05-12T19:59:04.216Z,12.18
2023-05-12T20:01:31.181Z,10.15
2023-05-12T20:03:57.882Z,8.10
2023-05-12T20:06:25.041Z,9.65
2023-05-12T20:08:52.482Z,11.00
2023-05-12T20:11:21.453Z,11.18
2023-05-12T20:13:48.223Z,11.32
2023-05-12T20:16:15.287Z,15.02
2023-05-12T20:18:42.108Z,10.45
2023-05-12T20:21:08.862Z,11.98
2023-05-12T20:23:35.748Z,9.88
2023-05-12T20:26:02.626Z,12.52
2023-05-12T20:28:29.807Z,9.73
2023-05-12T20:30:56.782Z,11.13
2023-05-12T20:33:24.220Z,10.57
2023-05-12T20:35:51.166Z,11.82
2023-05-12T20:38:18.381Z,11.88
2023-05-12T20:40:45.354Z,13.32
2023-05-12T20:43:14.683Z,12.32
2023-05-12T20:45:41.668Z,12.02
2023-05-12T20:48:11.662Z,11.10
2023-05-12T20:50:39.865Z,12.98
2023-05-12T20:53:07.248Z,12.27
2023-05-12T20:55:34.378Z,12.00
2023-05-12T20:58:02.012Z,12.38
2023-05-12T21:00:31.643Z,9.70
2023-05-12T21:02:59.827Z,12.20
2023-05-12T21:05:29.335Z,9.45
2023-05-12T21:07:58.603Z,9.88
2023-05-12T21:10:27.593Z,10.02
2023-05-12T21:12:56.795Z,11.27
2023-05-12T21:15:24.822Z,10.57
2023-05-12T21:17:53.515Z,11.33
2023-05-12T21:20:20.851Z,11.95
2023-05-12T21:22:48.078Z,15.05
2023-05-12T21:25:15.139Z,10.88
2023-05-12T21:27:42.080Z,10.88
2023-05-12T21:30:11.053Z,11.38
2023-05-12T21:32:39.762Z,10.88
2023-05-12T21:35:08.091Z,12.05
2023-05-12T21:37:35.264Z,10.75
2023-05-12T21:40:02.647Z,12.40
2023-05-12T21:42:29.676Z,17.80
2023-05-12T21:44:59.285Z,12.38
2023-05-12T21:47:29.106Z,13.55
2023-05-12T21:50:01.107Z,12.50
2023-05-12T21:52:30.450Z,12.93
2023-05-12T21:54:57.657Z,11.48
2023-05-12T21:57:24.787Z,12.23
2023-05-12T21:59:52.098Z,14.48
2023-05-12T22:02:19.685Z,17.00
2023-05-12T22:04:49.670Z,13.38
2023-05-12T22:07:16.759Z,13.02
2023-05-12T22:09:44.759Z,14.07
2023-05-12T22:12:21.956Z,13.15
2023-05-12T22:14:51.249Z,11.73
2023-05-12T22:17:18.432Z,13.85
2023-05-12T22:19:45.456Z,12.75
2023-05-12T22:22:12.803Z,12.57
2023-05-12T22:24:42.380Z,13.30
2023-05-12T22:27:13.419Z,13.95
2023-05-12T22:29:40.515Z,10.48
2023-05-12T22:32:12.405Z,13.68
2023-05-12T22:34:44.418Z,11.80
2023-05-12T22:37:14.341Z,14.85
2023-05-12T22:39:50.246Z,14.00
2023-05-12T22:42:20.744Z,13.32
2023-05-12T22:44:47.801Z,11.43
2023-05-12T22:47:14.899Z,11.23
2023-05-12T22:49:42.114Z,11.68
2023-05-12T22:52:13.911Z,12.57
2023-05-12T22:54:40.788Z,9.85
2023-05-12T22:57:10.825Z,10.77
2023-05-12T22:59:38.295Z,13.93
2023-05-12T23:02:08.214Z,10.77
2023-05-12T23:04:35.528Z,10.32
2023-05-12T23:07:03.151Z,10.32
2023-05-12T23:09:32.580Z,11.35
2023-05-12T23:12:01.194Z,12.52
2023-05-12T23:14:30.376Z,10.93
2023-05-12T23:17:01.626Z,11.07
2023-05-12T23:19:32.031Z,10.40
2023-05-12T23:21:59.160Z,10.45
2023-05-12T23:24:28.632Z,10.18
2023-05-12T23:26:55.819Z,14.18
2023-05-12T23:29:27.440Z,11.63
2023-05-12T23:31:57.946Z,11.40
2023-05-12T23:34:25.017Z,12.88
2023-05-12T23:36:52.341Z,11.55
2023-05-12T23:39:28.890Z,11.52
2023-05-12T23:41:59.628Z,11.63
2023-05-12T23:44:26.972Z,13.15
2023-05-12T23:46:54.579Z,12.80
2023-05-12T23:49:23.851Z,9.80
2023-05-12T23:51:53.512Z,10.93
2023-05-12T23:54:20.643Z,8.77
2023-05-12T23:56:51.024Z,10.20
2023-05-12T23:59:19.248Z,10.27
